createdAt,value
2018-04-23T04:09:24.081Z,1005.75
2018-04-23T04:09:50.665Z,1005.77
2018-04-23T04:10:16.025Z,1005.78
2018-04-23T04:10:41.569Z,1005.77
2018-04-23T04:11:06.999Z,1005.77
2018-04-23T04:11:32.555Z,1005.75
2018-04-23T04:11:58.148Z,1005.8
2018-04-23T04:12:23.635Z,1005.8
2018-04-23T04:12:49.199Z,1005.8
2018-04-23T04:13:14.617Z,1005.75
2018-04-23T04:13:40.092Z,1005.78
2018-04-23T04:14:05.613Z,1005.82
2018-04-23T04:14:31.166Z,1005.85
2018-04-23T04:14:56.576Z,1005.83
2018-04-23T04:15:22.003Z,1005.86
2018-04-23T04:15:47.438Z,1005.87
2018-04-23T04:16:12.929Z,1005.89
2018-04-23T04:16:38.381Z,1005.91
2018-04-23T04:17:03.826Z,1005.9
2018-04-23T04:17:29.269Z,1005.9
2018-04-23T04:17:54.720Z,1005.93
2018-04-23T04:18:20.251Z,1005.96
2018-04-23T04:18:45.688Z,1005.91
2018-04-23T04:19:11.189Z,1005.94
2018-04-23T04:19:36.604Z,1005.93
2018-04-23T04:20:02.091Z,1005.9
2018-04-23T04:20:27.648Z,1005.94
2018-04-23T04:20:53.164Z,1005.92
2018-04-23T04:21:18.656Z,1005.9
2018-04-23T04:21:44.090Z,1005.9
2018-04-23T04:22:09.517Z,1005.89
2018-04-23T04:22:34.998Z,1005.87
2018-04-23T04:23:00.539Z,1005.91
2018-04-23T04:23:25.978Z,1005.91
2018-04-23T04:23:51.441Z,1005.92
2018-04-23T04:24:16.888Z,1005.94
2018-04-23T04:24:42.398Z,1005.95
2018-04-23T04:25:07.858Z,1005.93
2018-04-23T04:25:33.296Z,1005.99
2018-04-23T04:25:58.849Z,1005.99
2018-04-23T04:26:24.370Z,1006.01
2018-04-23T04:26:49.831Z,1005.99
2018-04-23T04:27:15.375Z,1005.96
2018-04-23T04:27:40.868Z,1005.99
2018-04-23T04:28:06.403Z,1006
2018-04-23T04:28:31.815Z,1005.98
2018-04-23T04:28:57.268Z,1005.99
2018-04-23T04:29:22.809Z,1005.98
2018-04-23T04:29:48.250Z,1005.99
2018-04-23T04:30:13.730Z,1005.99
2018-04-23T04:30:39.231Z,1005.98
2018-04-23T04:31:04.710Z,1005.95
2018-04-23T04:31:30.182Z,1005.99
2018-04-23T04:31:55.673Z,1005.99
2018-04-23T04:32:21.125Z,1005.98
2018-04-23T04:32:46.604Z,1005.97
2018-04-23T04:33:12.071Z,1005.99
2018-04-23T04:33:37.550Z,1006.01
2018-04-23T04:34:02.984Z,1005.99
2018-04-23T04:34:28.534Z,1006.02
2018-04-23T04:34:54.075Z,1006.02
2018-04-23T04:35:19.785Z,1006.02
2018-04-23T04:35:46.297Z,1006.02
2018-04-23T04:36:11.487Z,1006.03
2018-04-23T04:36:36.918Z,1006.03
2018-04-23T04:37:02.984Z,1006.02
2018-04-23T04:37:28.999Z,1006.06
2018-04-23T04:37:55.270Z,1006.07
2018-04-23T04:38:21.076Z,1006.09
2018-04-23T04:38:47.032Z,1006.1
2018-04-23T04:39:12.670Z,1006.08
2018-04-23T04:39:39.196Z,1006.11
2018-04-23T04:40:05.363Z,1006.11
2018-04-23T04:40:31.602Z,1006.1
2018-04-23T04:40:58.565Z,1006.08
2018-04-23T04:41:25.142Z,1006.07
2018-04-23T04:41:51.586Z,1006.1
2018-04-23T04:42:17.927Z,1006.09
2018-04-23T04:42:49.732Z,1006.03
2018-04-23T04:43:24.541Z,1006.11
2018-04-23T04:44:00.251Z,1006.07
2018-04-23T04:44:51.618Z,1006.09
2018-04-23T04:45:17.483Z,1006.13
2018-04-23T04:45:43.203Z,1006.14
2018-04-23T04:46:09.055Z,1006.08
2018-04-23T04:46:35.137Z,1006.11
2018-04-23T04:47:00.727Z,1006.1
2018-04-23T04:47:26.538Z,1006.07
2018-04-23T04:47:51.923Z,1006.08
2018-04-23T04:48:19.854Z,1006.09
2018-04-23T04:48:49.196Z,1006.12
2018-04-23T04:49:15.516Z,1006.08
2018-04-23T04:49:42.950Z,1006.07
2018-04-23T04:50:16.003Z,1006.06
2018-04-23T04:51:25.214Z,1006.12
2018-04-23T04:51:52.068Z,1006.07
2018-04-23T04:52:17.545Z,1006.1
2018-04-23T04:52:43.937Z,1006.1
2018-04-23T04:53:10.167Z,1006.08
2018-04-23T04:53:36.366Z,1006.13
2018-04-23T04:54:02.664Z,1006.16
2018-04-23T04:54:28.735Z,1006.16
2018-04-23T04:54:55.238Z,1006.11
2018-04-23T04:55:21.139Z,1006.09
2018-04-23T04:55:47.053Z,1006.08
2018-04-23T04:56:13.292Z,1006.14
2018-04-23T04:56:39.871Z,1006.1
2018-04-23T04:57:06.408Z,1006.17
2018-04-23T04:57:32.456Z,1006.17
2018-04-23T04:57:59.618Z,1006.15
2018-04-23T04:58:25.786Z,1006.16
2018-04-23T04:58:51.280Z,1006.15
2018-04-23T04:59:17.863Z,1006.15
2018-04-23T04:59:43.723Z,1006.18
2018-04-23T05:00:10.429Z,1006.16
2018-04-23T05:00:36.811Z,1006.12
2018-04-23T05:01:02.567Z,1006.12
2018-04-23T05:01:28.777Z,1006.09
2018-04-23T05:01:54.814Z,1006.16
2018-04-23T05:02:21.160Z,1006.1
2018-04-23T05:02:47.366Z,1006.13
2018-04-23T05:03:13.012Z,1006.09
2018-04-23T05:03:38.791Z,1006.14
2018-04-23T05:04:05.058Z,1006.11
2018-04-23T05:04:31.404Z,1006.16
2018-04-23T05:04:57.379Z,1006.13
2018-04-23T05:05:22.840Z,1006.16
2018-04-23T05:05:48.569Z,1006.18
2018-04-23T05:06:14.303Z,1006.23
2018-04-23T05:06:39.846Z,1006.22
2018-04-23T05:07:05.707Z,1006.23
2018-04-23T05:07:32.010Z,1006.23
2018-04-23T05:07:57.536Z,1006.2
2018-04-23T05:08:23.443Z,1006.19
2018-04-23T05:08:49.259Z,1006.23
2018-04-23T05:09:15.015Z,1006.2
2018-04-23T05:09:40.784Z,1006.21
2018-04-23T05:10:06.604Z,1006.24
2018-04-23T05:10:32.284Z,1006.26
2018-04-23T05:10:58.273Z,1006.25
2018-04-23T05:11:24.016Z,1006.23
2018-04-23T05:11:50.219Z,1006.22
2018-04-23T05:12:16.435Z,1006.24
2018-04-23T05:12:42.177Z,1006.29
2018-04-23T05:13:07.832Z,1006.26
2018-04-23T05:13:33.412Z,1006.26
2018-04-23T05:13:59.234Z,1006.28
2018-04-23T05:14:25.043Z,1006.29
2018-04-23T05:14:50.802Z,1006.3
2018-04-23T05:15:16.623Z,1006.32
2018-04-23T05:15:42.539Z,1006.31
2018-04-23T05:16:08.853Z,1006.35
2018-04-23T05:16:34.341Z,1006.33
2018-04-23T05:17:00.012Z,1006.31
2018-04-23T05:17:25.807Z,1006.36
2018-04-23T05:17:51.597Z,1006.37
2018-04-23T05:18:17.311Z,1006.33
2018-04-23T05:18:42.902Z,1006.34
2018-04-23T05:19:08.972Z,1006.32
2018-04-23T05:19:34.394Z,1006.35
2018-04-23T05:20:00.008Z,1006.38
2018-04-23T05:20:26.222Z,1006.37
2018-04-23T05:20:51.856Z,1006.32
2018-04-23T05:21:17.444Z,1006.29
2018-04-23T05:21:43.167Z,1006.28
2018-04-23T05:22:09.262Z,1006.27
2018-04-23T05:22:34.737Z,1006.24
2018-04-23T05:23:00.580Z,1006.21
2018-04-23T05:23:26.416Z,1006.24
2018-04-23T05:23:52.173Z,1006.22
2018-04-23T05:24:17.836Z,1006.22
2018-04-23T05:24:43.803Z,1006.24
2018-04-23T05:25:09.462Z,1006.24
2018-04-23T05:25:35.120Z,1006.26
2018-04-23T05:26:01.311Z,1006.2
2018-04-23T05:26:27.061Z,1006.22
2018-04-23T05:26:53.026Z,1006.27
2018-04-23T05:27:18.540Z,1006.25
2018-04-23T05:27:44.304Z,1006.3
2018-04-23T05:28:10.608Z,1006.29
2018-04-23T05:28:36.321Z,1006.32
2018-04-23T05:29:02.258Z,1006.34
2018-04-23T05:29:27.849Z,1006.34
2018-04-23T05:29:53.656Z,1006.36
2018-04-23T05:30:19.475Z,1006.4
2018-04-23T05:30:45.235Z,1006.43
2018-04-23T05:31:10.940Z,1006.41
2018-04-23T05:31:37.364Z,1006.44
2018-04-23T05:32:03.072Z,1006.45
2018-04-23T05:32:29.420Z,1006.41
2018-04-23T05:32:55.175Z,1006.43
2018-04-23T05:33:21.189Z,1006.42
2018-04-23T05:33:47.247Z,1006.39
2018-04-23T05:34:13.017Z,1006.44
2018-04-23T05:34:39.209Z,1006.41
2018-04-23T05:35:04.721Z,1006.42
2018-04-23T05:35:30.291Z,1006.36
2018-04-23T05:35:56.812Z,1006.42
2018-04-23T05:36:22.213Z,1006.46
2018-04-23T05:36:47.863Z,1006.49
2018-04-23T05:37:13.553Z,1006.45
2018-04-23T05:37:39.402Z,1006.43
2018-04-23T05:38:06.018Z,1006.47
2018-04-23T05:38:32.713Z,1006.49
2018-04-23T05:38:58.505Z,1006.46
2018-04-23T05:39:23.997Z,1006.48
2018-04-23T05:39:49.482Z,1006.47
2018-04-23T05:40:14.921Z,1006.48
2018-04-23T05:40:40.446Z,1006.46
2018-04-23T05:41:05.878Z,1006.5
2018-04-23T05:41:31.369Z,1006.54
2018-04-23T05:41:56.865Z,1006.49
2018-04-23T05:42:22.358Z,1006.5
2018-04-23T05:42:47.857Z,1006.47
2018-04-23T05:43:13.367Z,1006.5
2018-04-23T05:43:38.750Z,1006.51
2018-04-23T05:44:04.277Z,1006.51
2018-04-23T05:44:29.732Z,1006.52
2018-04-23T05:44:55.197Z,1006.49
2018-04-23T05:45:20.704Z,1006.5
2018-04-23T05:45:46.238Z,1006.49
2018-04-23T05:46:11.664Z,1006.5
2018-04-23T05:46:37.096Z,1006.48
2018-04-23T05:47:02.555Z,1006.5
2018-04-23T05:47:28.038Z,1006.54
2018-04-23T05:47:53.502Z,1006.5
2018-04-23T05:48:19.051Z,1006.47
2018-04-23T05:48:44.511Z,1006.48
2018-04-23T05:49:09.961Z,1006.51
2018-04-23T05:49:35.445Z,1006.51
2018-04-23T05:50:00.925Z,1006.51
2018-04-23T05:50:26.361Z,1006.5
2018-04-23T05:50:51.799Z,1006.47
2018-04-23T05:51:17.331Z,1006.47
2018-04-23T05:51:42.824Z,1006.47
2018-04-23T05:52:08.314Z,1006.46
2018-04-23T05:52:33.807Z,1006.44
2018-04-23T05:52:59.230Z,1006.51
2018-04-23T05:53:24.739Z,1006.5
2018-04-23T05:53:50.216Z,1006.5
2018-04-23T05:54:15.838Z,1006.52
2018-04-23T05:54:41.268Z,1006.49
2018-04-23T05:55:06.715Z,1006.53
2018-04-23T05:55:32.192Z,1006.52
2018-04-23T05:55:57.698Z,1006.53
2018-04-23T05:56:23.107Z,1006.53
2018-04-23T05:56:48.640Z,1006.55
2018-04-23T05:57:14.199Z,1006.55
2018-04-23T05:57:39.664Z,1006.54
2018-04-23T05:58:05.153Z,1006.5
2018-04-23T05:58:30.663Z,1006.53
2018-04-23T05:58:56.106Z,1006.59
2018-04-23T05:59:21.671Z,1006.55
2018-04-23T05:59:47.163Z,1006.54
2018-04-23T06:00:12.584Z,1006.59
2018-04-23T06:00:38.101Z,1006.61
2018-04-23T06:01:03.570Z,1006.61
2018-04-23T06:01:29.045Z,1006.62
2018-04-23T06:01:54.520Z,1006.57
2018-04-23T06:02:20.089Z,1006.63
2018-04-23T06:02:45.541Z,1006.64
2018-04-23T06:03:10.964Z,1006.62
2018-04-23T06:03:36.513Z,1006.71
2018-04-23T06:04:01.980Z,1006.65
2018-04-23T06:04:27.390Z,1006.64
2018-04-23T06:04:52.989Z,1006.68
2018-04-23T06:05:18.831Z,1006.69
2018-04-23T06:05:44.188Z,1006.63
2018-04-23T06:06:09.724Z,1006.72
2018-04-23T06:06:35.141Z,1006.67
2018-04-23T06:07:00.584Z,1006.68
2018-04-23T06:07:26.147Z,1006.69
2018-04-23T06:07:51.625Z,1006.65
2018-04-23T06:08:17.068Z,1006.72
2018-04-23T06:08:42.565Z,1006.67
2018-04-23T06:09:08.032Z,1006.69
2018-04-23T06:09:33.518Z,1006.71
2018-04-23T06:09:59.022Z,1006.71
2018-04-23T06:10:24.487Z,1006.71
2018-04-23T06:10:49.916Z,1006.75
2018-04-23T06:11:15.364Z,1006.75
2018-04-23T06:11:40.888Z,1006.77
2018-04-23T06:12:06.352Z,1006.76
2018-04-23T06:12:31.834Z,1006.82
2018-04-23T06:12:57.286Z,1006.77
2018-04-23T06:13:22.736Z,1006.75
2018-04-23T06:13:48.342Z,1006.78
2018-04-23T06:14:13.774Z,1006.82
2018-04-23T06:14:39.234Z,1006.8
2018-04-23T06:15:04.713Z,1006.81
2018-04-23T06:15:30.172Z,1006.83
2018-04-23T06:15:55.616Z,1006.87
2018-04-23T06:16:21.119Z,1006.82
2018-04-23T06:16:46.591Z,1006.83
2018-04-23T06:17:12.096Z,1006.82
2018-04-23T06:17:37.505Z,1006.81
2018-04-23T06:18:03.007Z,1006.79
2018-04-23T06:18:28.548Z,1006.79
2018-04-23T06:18:53.964Z,1006.77
2018-04-23T06:19:19.411Z,1006.77
2018-04-23T06:19:45.464Z,1006.79
2018-04-23T06:20:10.870Z,1006.81
2018-04-23T06:20:36.399Z,1006.81
2018-04-23T06:21:01.844Z,1006.85
2018-04-23T06:21:27.407Z,1006.86
2018-04-23T06:21:52.890Z,1006.83
2018-04-23T06:22:18.331Z,1006.89
2018-04-23T06:22:43.835Z,1006.84
2018-04-23T06:23:09.314Z,1006.89
2018-04-23T06:23:34.782Z,1006.9
2018-04-23T06:24:00.205Z,1006.84
2018-04-23T06:24:25.709Z,1006.89
2018-04-23T06:24:51.170Z,1006.89
2018-04-23T06:25:16.779Z,1006.93
2018-04-23T06:25:42.235Z,1006.82
2018-04-23T06:26:07.799Z,1006.85
2018-04-23T06:26:33.448Z,1006.89
2018-04-23T06:26:59.155Z,1006.85
2018-04-23T06:27:24.650Z,1006.86
2018-04-23T06:27:50.262Z,1006.86
2018-04-23T06:28:16.028Z,1006.88
2018-04-23T06:28:41.680Z,1006.88
2018-04-23T06:29:08.280Z,1006.88
2018-04-23T06:29:35.105Z,1006.9
2018-04-23T06:30:00.710Z,1006.93
2018-04-23T06:30:26.318Z,1006.88
2018-04-23T06:30:52.055Z,1006.91
2018-04-23T06:31:17.929Z,1006.91
2018-04-23T06:31:43.552Z,1006.92
2018-04-23T06:32:09.554Z,1006.89
2018-04-23T06:32:35.502Z,1006.93
2018-04-23T06:33:01.398Z,1006.88
2018-04-23T06:33:26.936Z,1006.87
2018-04-23T06:33:52.679Z,1006.9
2018-04-23T06:34:18.420Z,1006.93
2018-04-23T06:34:43.947Z,1006.92
2018-04-23T06:35:09.864Z,1006.94
2018-04-23T06:35:35.762Z,1006.91
2018-04-23T06:36:01.373Z,1006.93
2018-04-23T06:36:27.002Z,1006.92
2018-04-23T06:36:53.091Z,1006.93
2018-04-23T06:37:18.489Z,1006.94
2018-04-23T06:37:44.048Z,1006.92
2018-04-23T06:38:09.881Z,1006.96
2018-04-23T06:38:35.802Z,1006.97
2018-04-23T06:39:01.527Z,1006.97
2018-04-23T06:39:27.114Z,1006.98
2018-04-23T06:39:52.955Z,1006.94
2018-04-23T06:40:18.667Z,1006.94
2018-04-23T06:40:44.193Z,1006.95
2018-04-23T06:41:09.697Z,1006.92
2018-04-23T06:41:35.423Z,1006.96
2018-04-23T06:42:01.151Z,1006.99
2018-04-23T06:42:27.138Z,1006.98
2018-04-23T06:42:53.946Z,1006.95
2018-04-23T06:43:18.807Z,1006.99
2018-04-23T06:43:44.514Z,1007
2018-04-23T06:44:10.294Z,1007.01
2018-04-23T06:44:36.411Z,1007.01
2018-04-23T06:45:02.113Z,1007.02
2018-04-23T06:45:27.654Z,1007.04
2018-04-23T06:45:53.261Z,1007.06
2018-04-23T06:46:18.920Z,1007.08
2018-04-23T06:46:44.615Z,1007.03
2018-04-23T06:47:10.201Z,1007.05
2018-04-23T06:47:35.731Z,1007.09
2018-04-23T06:48:01.268Z,1007.1
2018-04-23T06:48:27.251Z,1007.09
2018-04-23T06:48:53.277Z,1007.06
2018-04-23T06:49:19.670Z,1007.1
2018-04-23T06:49:45.408Z,1007.07
2018-04-23T06:50:11.255Z,1007.05
2018-04-23T06:50:37.477Z,1007.08
2018-04-23T06:51:03.326Z,1007.08
2018-04-23T06:51:29.135Z,1007.03
2018-04-23T06:51:54.819Z,1007.09
2018-04-23T06:52:20.763Z,1007.05
2018-04-23T06:52:46.711Z,1007.09
2018-04-23T06:53:12.452Z,1007.1
2018-04-23T06:53:38.301Z,1007.11
2018-04-23T06:54:04.142Z,1007.09
2018-04-23T06:54:29.812Z,1007.1
2018-04-23T06:54:55.359Z,1007.08
2018-04-23T06:55:20.978Z,1007.12
2018-04-23T06:55:46.643Z,1007.08
2018-04-23T06:56:12.141Z,1007.12
2018-04-23T06:56:38.076Z,1007.13
2018-04-23T06:57:03.740Z,1007.13
2018-04-23T06:57:29.663Z,1007.14
2018-04-23T06:57:55.602Z,1007.17
2018-04-23T06:58:21.449Z,1007.19
2018-04-23T06:58:47.165Z,1007.18
2018-04-23T06:59:13.162Z,1007.15
2018-04-23T06:59:39.162Z,1007.18
